createdAt,value
2023-01-20T00:01:55.943Z,100045.81
2023-01-20T00:04:24.410Z,100014.41
2023-01-20T00:06:54.448Z,100048.41
2023-01-20T00:09:24.555Z,100048.41
2023-01-20T00:11:53.332Z,100056.22
2023-01-20T00:14:22.206Z,100049.25
2023-01-20T00:16:53.716Z,100056.22
2023-01-20T00:19:22.154Z,99864.25
2023-01-20T00:21:50.837Z,100056.19
2023-01-20T00:24:19.268Z,100064.00
2023-01-20T00:26:49.076Z,99977.56
2023-01-20T00:29:17.557Z,99908.63
2023-01-20T00:31:46.321Z,100062.19
2023-01-20T00:34:15.152Z,100063.91
2023-01-20T00:36:45.875Z,100069.09
2023-01-20T00:39:19.215Z,100072.56
2023-01-20T00:41:53.654Z,100076.03
2023-01-20T00:44:22.660Z,100075.16
2023-01-20T00:46:51.497Z,100072.53
2023-01-20T00:49:26.254Z,99993.88
2023-01-20T00:51:55.111Z,100081.22
2023-01-20T00:54:23.911Z,100092.53
2023-01-20T00:56:54.130Z,100090.78
2023-01-20T00:59:24.264Z,100091.66
2023-01-20T01:01:53.181Z,100102.09
2023-01-20T01:04:22.230Z,100107.31
2023-01-20T01:06:54.146Z,100107.34
2023-01-20T01:09:22.883Z,100067.13
2023-01-20T01:11:53.221Z,100110.81
2023-01-20T01:14:21.983Z,100115.19
2023-01-20T01:16:50.817Z,100118.72
2023-01-20T01:19:19.951Z,99945.75
2023-01-20T01:21:48.423Z,100090.72
2023-01-20T01:24:17.229Z,100118.72
2023-01-20T01:26:45.994Z,100123.09
2023-01-20T01:29:16.094Z,100126.56
2023-01-20T01:31:44.922Z,100136.06
2023-01-20T01:34:13.685Z,100138.69
2023-01-20T01:36:42.458Z,100136.09
2023-01-20T01:39:12.560Z,100143.94
2023-01-20T01:41:43.566Z,99987.59
2023-01-20T01:44:17.083Z,100138.69
2023-01-20T01:46:45.943Z,100142.19
2023-01-20T01:49:18.974Z,100087.88
2023-01-20T01:51:55.185Z,100153.47
2023-01-20T01:54:28.710Z,99981.47
2023-01-20T01:56:58.621Z,100163.00
2023-01-20T01:59:28.893Z,100153.47
2023-01-20T02:01:58.599Z,100160.41
2023-01-20T02:04:31.256Z,100119.31
2023-01-20T02:07:09.289Z,100175.28
2023-01-20T02:09:41.157Z,100179.63
2023-01-20T02:12:20.526Z,99974.34
2023-01-20T02:14:55.175Z,100195.31
2023-01-20T02:17:32.484Z,99928.06
2023-01-20T02:20:44.909Z,100118.47
2023-01-20T02:23:36.503Z,100082.72
2023-01-20T02:26:40.135Z,100090.56
2023-01-20T02:30:11.347Z,100210.25
2023-01-20T02:32:53.476Z,100113.25
2023-01-20T02:35:33.866Z,100175.31
2023-01-20T02:38:16.385Z,100213.78
2023-01-20T02:40:59.716Z,100219.00
2023-01-20T02:43:42.759Z,100159.59
2023-01-20T02:46:18.273Z,100190.19
2023-01-20T02:49:05.281Z,100217.25
2023-01-20T02:51:51.024Z,100106.22
2023-01-20T02:54:23.019Z,100176.16
2023-01-20T02:56:54.012Z,100219.00
2023-01-20T02:59:30.001Z,100228.56
2023-01-20T03:02:04.914Z,100233.78
2023-01-20T03:04:42.710Z,100234.69
2023-01-20T03:07:13.864Z,100194.44
2023-01-20T03:09:49.526Z,100230.31
2023-01-20T03:12:24.728Z,99997.84
2023-01-20T03:14:55.236Z,100240.78
2023-01-20T03:17:24.731Z,100180.47
2023-01-20T03:20:14.530Z,100019.75
2023-01-20T03:22:51.240Z,100245.09
2023-01-20T03:25:21.669Z,100244.28
2023-01-20T03:27:50.647Z,100246.00
2023-01-20T03:30:20.029Z,100251.22
2023-01-20T03:32:51.210Z,100082.59
2023-01-20T03:35:22.577Z,100236.34
2023-01-20T03:37:53.740Z,100252.13
2023-01-20T03:40:26.297Z,100246.94
2023-01-20T03:43:02.684Z,100097.47
2023-01-20T03:45:42.347Z,100248.66
2023-01-20T03:48:20.312Z,100254.78
2023-01-20T03:50:58.283Z,100200.59
2023-01-20T03:53:38.238Z,99965.56
2023-01-20T03:56:17.008Z,100211.09
2023-01-20T03:58:51.986Z,100267.84
2023-01-20T04:01:25.852Z,100219.72
2023-01-20T04:03:56.288Z,100280.00
2023-01-20T04:06:30.707Z,100283.47
2023-01-20T04:09:05.611Z,100212.63
2023-01-20T04:11:34.456Z,100286.94
2023-01-20T04:14:03.041Z,100281.75
2023-01-20T04:16:31.819Z,100294.75
2023-01-20T04:19:00.548Z,100287.78
2023-01-20T04:21:36.150Z,100095.38
2023-01-20T04:24:12.052Z,100295.59
2023-01-20T04:26:40.595Z,100285.97
2023-01-20T04:29:12.023Z,100304.25
2023-01-20T04:31:41.788Z,100244.75
2023-01-20T04:34:15.444Z,100312.94
2023-01-20T04:36:45.322Z,100259.66
2023-01-20T04:39:14.105Z,100309.44
2023-01-20T04:41:52.086Z,100316.44
2023-01-20T04:44:26.193Z,100318.19
2023-01-20T04:46:59.883Z,100313.81
2023-01-20T04:49:32.038Z,100321.66
2023-01-20T04:52:04.956Z,100323.41
2023-01-20T04:54:33.927Z,100326.88
2023-01-20T04:57:09.424Z,100325.16
2023-01-20T04:59:46.900Z,100329.56
2023-01-20T05:02:15.761Z,100330.38
2023-01-20T05:04:45.264Z,100331.25
2023-01-20T05:07:15.132Z,100306.75
2023-01-20T05:09:45.950Z,100335.63
2023-01-20T05:12:14.725Z,100341.72
2023-01-20T05:14:43.096Z,100340.81
2023-01-20T05:17:11.820Z,100346.09
2023-01-20T05:19:40.929Z,100345.22
2023-01-20T05:22:09.350Z,100344.38
2023-01-20T05:24:41.849Z,100320.75
2023-01-20T05:27:10.749Z,100350.50
2023-01-20T05:29:39.445Z,100360.09
2023-01-20T05:32:08.188Z,100367.00
2023-01-20T05:34:36.580Z,100351.19
2023-01-20T05:37:05.312Z,100377.38
2023-01-20T05:39:34.031Z,100392.16
2023-01-20T05:42:04.045Z,100384.38
2023-01-20T05:44:32.787Z,100385.22
2023-01-20T05:47:01.211Z,100396.53
2023-01-20T05:49:29.933Z,100393.06
2023-01-20T05:51:58.293Z,100393.94
2023-01-20T05:54:27.308Z,100398.31
2023-01-20T05:56:55.739Z,100307.19
2023-01-20T05:59:26.595Z,100406.13
2023-01-20T06:01:56.833Z,100408.75
2023-01-20T06:04:27.561Z,100414.00
2023-01-20T06:06:56.295Z,100414.03
2023-01-20T06:09:25.214Z,100414.91
2023-01-20T06:11:53.892Z,100416.63
2023-01-20T06:14:22.642Z,100431.41
2023-01-20T06:16:53.038Z,100432.28
2023-01-20T06:19:21.712Z,100436.63
2023-01-20T06:21:50.534Z,100439.22
2023-01-20T06:24:18.911Z,100445.34
2023-01-20T06:26:47.695Z,100441.84
2023-01-20T06:29:18.378Z,100444.50
2023-01-20T06:31:47.236Z,100450.50
2023-01-20T06:34:17.067Z,100455.72
2023-01-20T06:36:46.264Z,100461.75
2023-01-20T06:39:17.261Z,100458.13
2023-01-20T06:41:46.453Z,100462.44
2023-01-20T06:44:15.495Z,100465.97
2023-01-20T06:46:45.712Z,100466.91
2023-01-20T06:49:16.716Z,100475.59
2023-01-20T06:51:47.776Z,100482.56
2023-01-20T06:54:16.597Z,100481.63
2023-01-20T06:56:45.483Z,100483.47
2023-01-20T06:59:14.749Z,100427.34
2023-01-20T07:01:47.117Z,100492.19
2023-01-20T07:04:17.287Z,100488.66
2023-01-20T07:06:46.102Z,100491.13
2023-01-20T07:09:15.089Z,100493.69
2023-01-20T07:11:44.998Z,100495.28
2023-01-20T07:14:13.727Z,100497.91
2023-01-20T07:16:42.430Z,100503.13
2023-01-20T07:19:11.717Z,100512.56
2023-01-20T07:21:46.175Z,100516.00
2023-01-20T07:24:14.971Z,100518.63
2023-01-20T07:26:43.395Z,100521.22
2023-01-20T07:29:12.172Z,100520.56
2023-01-20T07:31:40.916Z,100529.25
2023-01-20T07:34:09.714Z,100533.41
2023-01-20T07:36:38.146Z,100538.72
2023-01-20T07:39:07.947Z,100538.00
2023-01-20T07:41:36.691Z,100540.88
2023-01-20T07:44:05.681Z,100538.16
2023-01-20T07:46:34.482Z,100544.13
2023-01-20T07:49:03.176Z,100544.19
2023-01-20T07:51:31.934Z,100543.34
2023-01-20T07:54:01.817Z,100553.84
2023-01-20T07:56:32.132Z,100554.78
2023-01-20T07:59:00.886Z,100564.34
2023-01-20T08:01:33.400Z,100560.00
2023-01-20T08:04:02.774Z,100558.31
2023-01-20T08:06:31.700Z,100571.38
2023-01-20T08:09:02.896Z,100511.81
2023-01-20T08:11:33.257Z,100575.00
2023-01-20T08:14:01.688Z,100580.19
2023-01-20T08:16:32.044Z,100583.56
2023-01-20T08:19:00.636Z,100585.31
2023-01-20T08:21:31.724Z,100593.25
2023-01-20T08:24:04.172Z,100599.41
2023-01-20T08:26:34.841Z,100574.03
2023-01-20T08:29:04.911Z,100614.19
2023-01-20T08:31:33.713Z,100614.16
2023-01-20T08:34:02.245Z,100589.78
2023-01-20T08:36:34.331Z,100588.81
2023-01-20T08:39:08.342Z,100544.09
2023-01-20T08:41:41.193Z,100608.06
2023-01-20T08:44:13.049Z,100631.78
2023-01-20T08:46:42.326Z,100639.63
2023-01-20T08:49:13.670Z,100637.91
2023-01-20T08:51:42.868Z,100646.69
2023-01-20T08:54:11.357Z,100647.72
2023-01-20T08:56:41.363Z,100650.25
2023-01-20T08:59:12.532Z,100651.97
2023-01-20T09:01:43.120Z,100653.91
2023-01-20T09:04:19.878Z,100658.47
2023-01-20T09:06:52.828Z,100645.56
2023-01-20T09:09:24.364Z,100655.16
2023-01-20T09:12:01.413Z,100655.09
2023-01-20T09:14:30.265Z,100656.00
2023-01-20T09:17:00.491Z,100664.88
2023-01-20T09:19:30.763Z,100664.84
2023-01-20T09:21:59.524Z,100667.19
2023-01-20T09:24:28.304Z,100665.44
2023-01-20T09:26:58.542Z,100665.66
2023-01-20T09:29:27.399Z,100685.91
2023-01-20T09:31:58.935Z,100680.53
2023-01-20T09:34:30.044Z,100692.91
2023-01-20T09:37:21.259Z,100598.44
2023-01-20T09:40:08.157Z,100687.97
2023-01-20T09:43:14.800Z,100694.19
2023-01-20T09:45:53.331Z,100646.72
2023-01-20T09:48:53.951Z,100622.91
2023-01-20T09:51:53.033Z,100693.28
2023-01-20T09:54:30.285Z,100698.56
2023-01-20T09:57:03.015Z,100676.72
2023-01-20T09:59:40.654Z,100508.34
2023-01-20T10:02:19.167Z,100699.38
2023-01-20T10:04:53.680Z,100662.34
2023-01-20T10:07:32.777Z,100701.75
2023-01-20T10:10:14.366Z,100702.59
2023-01-20T10:12:50.833Z,100716.19
2023-01-20T10:15:29.210Z,100710.78
2023-01-20T10:18:05.353Z,100710.72
2023-01-20T10:20:44.101Z,100629.13
2023-01-20T10:23:21.521Z,100699.28
2023-01-20T10:25:57.418Z,100703.66
2023-01-20T10:28:30.340Z,100699.94
2023-01-20T10:31:05.374Z,100702.44
2023-01-20T10:33:39.186Z,100699.97
2023-01-20T10:36:17.508Z,100696.44
2023-01-20T10:38:58.068Z,100699.28
2023-01-20T10:41:39.974Z,100515.72
2023-01-20T10:44:14.648Z,100628.13
2023-01-20T10:47:13.745Z,100681.13
2023-01-20T10:50:22.279Z,100639.25
2023-01-20T10:53:25.166Z,100707.03
2023-01-20T10:56:07.040Z,100708.06
2023-01-20T10:58:41.688Z,100476.53
2023-01-20T11:01:15.155Z,100715.88
2023-01-20T11:03:49.083Z,100715.00
2023-01-20T11:06:25.309Z,100717.13
2023-01-20T11:08:55.116Z,100719.88
2023-01-20T11:11:25.995Z,100728.53
2023-01-20T11:13:55.263Z,100732.97
2023-01-20T11:16:28.861Z,100735.50
2023-01-20T11:19:02.183Z,100738.75
2023-01-20T11:21:36.901Z,100743.16
2023-01-20T11:24:32.177Z,100744.09
2023-01-20T11:27:06.762Z,100741.75
2023-01-20T11:29:43.915Z,100749.53
2023-01-20T11:32:33.351Z,100752.63
2023-01-20T11:35:21.315Z,100753.34
2023-01-20T11:37:50.031Z,100690.84
2023-01-20T11:40:23.538Z,100771.28
2023-01-20T11:42:53.869Z,100781.91
2023-01-20T11:45:51.862Z,100736.31
2023-01-20T11:48:21.769Z,100777.88
2023-01-20T11:50:56.308Z,100780.53
2023-01-20T11:53:28.383Z,100778.63
2023-01-20T11:56:02.022Z,100677.47
2023-01-20T11:58:49.443Z,100795.47
2023-01-20T12:01:25.876Z,100737.78
2023-01-20T12:04:58.639Z,100776.75
2023-01-20T12:07:35.660Z,100783.13
2023-01-20T12:10:16.056Z,100767.41
2023-01-20T12:12:52.370Z,100793.03
2023-01-20T12:15:25.175Z,100797.34
2023-01-20T12:17:59.659Z,100806.63
2023-01-20T12:20:45.612Z,100776.03
2023-01-20T12:23:33.897Z,100802.28
2023-01-20T12:26:05.695Z,100815.22
2023-01-20T12:28:43.499Z,100822.16
2023-01-20T12:31:14.554Z,100807.06
2023-01-20T12:33:48.311Z,100702.69
2023-01-20T12:36:56.831Z,100822.81
2023-01-20T12:40:07.325Z,100827.34
2023-01-20T12:43:08.729Z,100801.19
2023-01-20T12:46:01.109Z,100841.78
2023-01-20T12:48:50.166Z,100844.97
2023-01-20T12:51:47.417Z,100845.50
2023-01-20T12:54:52.779Z,100843.41
2023-01-20T12:57:45.672Z,100844.44
2023-01-20T13:00:41.717Z,100845.50
2023-01-20T13:04:11.813Z,100847.47
2023-01-20T13:07:23.215Z,100853.88
2023-01-20T13:10:24.441Z,100860.03
2023-01-20T13:13:02.979Z,100856.94
2023-01-20T13:15:39.259Z,100826.56
2023-01-20T13:18:28.821Z,100853.00
2023-01-20T13:23:40.833Z,100867.34
2023-01-20T13:26:11.022Z,100764.22
2023-01-20T13:28:39.914Z,100866.22
2023-01-20T13:31:44.010Z,100875.97
2023-01-20T13:34:40.461Z,100873.34
2023-01-20T13:37:28.227Z,100856.22
2023-01-20T13:40:00.518Z,100876.78
2023-01-20T13:42:50.251Z,100876.31
2023-01-20T13:45:27.895Z,100814.06
2023-01-20T13:48:03.635Z,100884.50
2023-01-20T13:50:35.377Z,100838.00
2023-01-20T13:53:25.774Z,100798.59
2023-01-20T13:56:26.776Z,100881.31
2023-01-20T13:58:58.425Z,100885.66
2023-01-20T14:01:28.381Z,100896.19
2023-01-20T14:04:05.674Z,100897.13
2023-01-20T14:06:36.001Z,100814.00
2023-01-20T14:09:20.041Z,100904.06
2023-01-20T14:11:52.582Z,100853.38
2023-01-20T14:14:25.439Z,100903.94
2023-01-20T14:16:54.851Z,100904.84
2023-01-20T14:19:31.036Z,100909.78
2023-01-20T14:22:02.841Z,100909.25
2023-01-20T14:24:34.969Z,100916.41
2023-01-20T14:27:15.519Z,100924.13
2023-01-20T14:29:46.552Z,100903.72
2023-01-20T14:32:22.343Z,100886.78
2023-01-20T14:34:53.151Z,100929.75
2023-01-20T14:37:30.074Z,100933.06
2023-01-20T14:40:03.226Z,100926.59
2023-01-20T14:42:32.031Z,100942.75
2023-01-20T14:45:02.240Z,100942.09
2023-01-20T14:47:34.387Z,100949.38
2023-01-20T14:50:04.395Z,100953.28
2023-01-20T14:52:35.297Z,100961.84
2023-01-20T14:55:04.104Z,100965.22
2023-01-20T14:57:35.331Z,100950.19
2023-01-20T15:00:23.281Z,100975.81
2023-01-20T15:03:10.216Z,100986.94
2023-01-20T15:05:53.479Z,100962.25
2023-01-20T15:08:26.742Z,100993.00
2023-01-20T15:11:22.536Z,100968.13
2023-01-20T15:14:11.507Z,101007.06
2023-01-20T15:16:50.273Z,100970.06
2023-01-20T15:19:38.984Z,101016.50
2023-01-20T15:22:28.364Z,101021.00
2023-01-20T15:25:04.378Z,101022.13
2023-01-20T15:27:35.014Z,100999.59
2023-01-20T15:30:21.113Z,101021.50
2023-01-20T15:32:53.035Z,101029.13
2023-01-20T15:35:25.917Z,101014.09
2023-01-20T15:37:55.702Z,101027.34
2023-01-20T15:40:27.276Z,101025.97
2023-01-20T15:42:57.796Z,101031.03
2023-01-20T15:45:26.841Z,100912.44
2023-01-20T15:47:57.812Z,101031.56
2023-01-20T15:50:27.196Z,101036.97
2023-01-20T15:52:56.641Z,101030.19
2023-01-20T15:55:26.082Z,101040.81
2023-01-20T15:57:54.941Z,101037.38
2023-01-20T16:00:25.262Z,100948.25
2023-01-20T16:02:54.391Z,101035.75
2023-01-20T16:05:25.420Z,101041.19
2023-01-20T16:07:54.614Z,101042.97
2023-01-20T16:10:23.380Z,101048.09
2023-01-20T16:12:52.382Z,101056.28
2023-01-20T16:15:21.497Z,101054.84
2023-01-20T16:17:52.735Z,101063.22
2023-01-20T16:20:27.079Z,101066.91
2023-01-20T16:22:57.148Z,101063.56
2023-01-20T16:25:26.292Z,100988.84
2023-01-20T16:27:54.931Z,101068.41
2023-01-20T16:30:24.703Z,101014.41
2023-01-20T16:32:53.807Z,101061.69
2023-01-20T16:35:25.512Z,101070.50
2023-01-20T16:37:54.588Z,101072.28
2023-01-20T16:40:24.791Z,101071.53
2023-01-20T16:42:56.853Z,101078.00
2023-01-20T16:45:31.746Z,101084.97
2023-01-20T16:48:00.737Z,101089.34
2023-01-20T16:50:30.812Z,101090.69
2023-01-20T16:52:59.753Z,101097.31
2023-01-20T16:55:28.468Z,101095.59
2023-01-20T16:57:57.907Z,101108.53
2023-01-20T17:00:27.238Z,101105.13
2023-01-20T17:02:56.313Z,101125.28
2023-01-20T17:05:26.010Z,101125.47
2023-01-20T17:07:58.103Z,101127.56
2023-01-20T17:10:29.524Z,101134.75
2023-01-20T17:13:00.482Z,101080.88
2023-01-20T17:15:30.267Z,101140.84
2023-01-20T17:18:00.608Z,101137.69
2023-01-20T17:20:31.277Z,101142.41
2023-01-20T17:23:01.859Z,101139.94
2023-01-20T17:25:31.120Z,101146.97
2023-01-20T17:28:00.213Z,101148.72
2023-01-20T17:30:29.065Z,101139.66
2023-01-20T17:32:58.534Z,101148.47
2023-01-20T17:35:28.379Z,101145.38
2023-01-20T17:38:00.669Z,101106.50
2023-01-20T17:40:29.475Z,101157.44
2023-01-20T17:42:58.892Z,101161.56
2023-01-20T17:45:29.587Z,101155.41
2023-01-20T17:47:58.153Z,100859.47
2023-01-20T17:50:28.825Z,101161.03
2023-01-20T17:52:58.039Z,101174.97
2023-01-20T17:55:29.884Z,101140.03
2023-01-20T17:57:59.364Z,101174.00
2023-01-20T18:00:28.287Z,101167.34
2023-01-20T18:02:58.363Z,101171.03
2023-01-20T18:05:28.872Z,101169.34
2023-01-20T18:07:57.814Z,101174.81
2023-01-20T18:10:28.477Z,101171.69
2023-01-20T18:12:57.879Z,101080.75
2023-01-20T18:15:26.746Z,101140.84
2023-01-20T18:17:56.191Z,101180.09
2023-01-20T18:20:25.047Z,101176.78
2023-01-20T18:22:54.641Z,101183.13
2023-01-20T18:25:23.396Z,101183.50
2023-01-20T18:27:53.968Z,101191.03
2023-01-20T18:30:22.791Z,101192.22
2023-01-20T18:32:52.302Z,101194.00
2023-01-20T18:35:21.735Z,101198.72
2023-01-20T18:37:51.100Z,101202.44
2023-01-20T18:40:20.397Z,101204.63
2023-01-20T18:42:49.391Z,101208.22
2023-01-20T18:45:20.130Z,101209.25
2023-01-20T18:47:50.173Z,101180.22
2023-01-20T18:50:20.058Z,101215.81
2023-01-20T18:52:49.120Z,101211.50
2023-01-20T18:55:18.335Z,101210.41
2023-01-20T18:57:47.762Z,101205.75
2023-01-20T19:00:20.856Z,101213.31
2023-01-20T19:02:52.858Z,101039.97
2023-01-20T19:05:22.007Z,101224.28
2023-01-20T19:07:51.372Z,101229.34
2023-01-20T19:10:21.706Z,101222.19
2023-01-20T19:12:53.448Z,101118.44
2023-01-20T19:15:24.200Z,101225.63
2023-01-20T19:17:53.267Z,101227.34
2023-01-20T19:20:22.486Z,101235.91
2023-01-20T19:22:51.673Z,101238.34
2023-01-20T19:25:20.414Z,101239.94
2023-01-20T19:27:49.192Z,101236.41
2023-01-20T19:30:18.786Z,101241.72
2023-01-20T19:32:49.014Z,101230.75
2023-01-20T19:35:17.780Z,101232.38
2023-01-20T19:37:46.509Z,101235.13
2023-01-20T19:40:16.513Z,101243.75
2023-01-20T19:42:48.309Z,101245.47
2023-01-20T19:45:17.408Z,101247.44
2023-01-20T19:47:46.145Z,101245.66
2023-01-20T19:50:17.032Z,101250.97
2023-01-20T19:52:45.904Z,101248.50
2023-01-20T19:55:14.709Z,101256.19
2023-01-20T19:57:43.455Z,101264.97
2023-01-20T20:00:14.804Z,101212.28
2023-01-20T20:02:45.735Z,101272.16
2023-01-20T20:05:16.834Z,101271.97
2023-01-20T20:07:45.670Z,101270.44
2023-01-20T20:10:14.816Z,101278.03
2023-01-20T20:12:43.701Z,101277.16
2023-01-20T20:15:12.964Z,101285.84
2023-01-20T20:17:41.461Z,101295.81
2023-01-20T20:20:11.916Z,101294.66
2023-01-20T20:22:42.173Z,101298.84
2023-01-20T20:25:11.579Z,101303.19
2023-01-20T20:27:40.327Z,101301.16
2023-01-20T20:30:10.625Z,101301.47
2023-01-20T20:32:39.480Z,101312.16
2023-01-20T20:35:08.630Z,101317.75
2023-01-20T20:37:37.489Z,101298.91
2023-01-20T20:40:10.695Z,101319.91
2023-01-20T20:42:39.431Z,101318.13
2023-01-20T20:45:09.749Z,101320.63
2023-01-20T20:47:38.562Z,101323.38
2023-01-20T20:50:08.733Z,101234.19
2023-01-20T20:52:37.438Z,101338.44
2023-01-20T20:55:10.784Z,101331.78
2023-01-20T20:57:40.833Z,101333.41
2023-01-20T21:00:11.420Z,101306.09
2023-01-20T21:02:43.118Z,101343.25
2023-01-20T21:05:11.953Z,101341.81
2023-01-20T21:07:40.688Z,101340.38
2023-01-20T21:10:14.257Z,101345.84
2023-01-20T21:12:43.297Z,101343.88
2023-01-20T21:15:12.578Z,101342.28
2023-01-20T21:17:41.452Z,101345.78
2023-01-20T21:20:11.562Z,101349.34
2023-01-20T21:22:40.419Z,101356.13
2023-01-20T21:25:11.614Z,101350.03
2023-01-20T21:27:40.536Z,101352.50
2023-01-20T21:30:11.535Z,101358.03
2023-01-20T21:32:40.931Z,101354.59
2023-01-20T21:35:10.820Z,101344.06
2023-01-20T21:37:39.609Z,101358.03
2023-01-20T21:40:09.518Z,101333.91
2023-01-20T21:42:39.337Z,101363.38
2023-01-20T21:45:08.955Z,101365.50
2023-01-20T21:47:37.661Z,101371.94
2023-01-20T21:50:24.968Z,101321.13
2023-01-20T21:52:53.879Z,101379.84
2023-01-20T21:55:24.218Z,101379.91
2023-01-20T21:57:54.177Z,101383.78
2023-01-20T22:00:23.450Z,101383.41
2023-01-20T22:02:52.185Z,101388.03
2023-01-20T22:05:21.010Z,101392.78
2023-01-20T22:07:49.762Z,101390.94
2023-01-20T22:10:18.889Z,101396.97
2023-01-20T22:12:47.649Z,101398.75
2023-01-20T22:15:17.845Z,101401.56
2023-01-20T22:17:47.523Z,101410.16
2023-01-20T22:20:16.681Z,101403.63
2023-01-20T22:22:45.607Z,101402.38
2023-01-20T22:25:14.441Z,101395.75
2023-01-20T22:27:43.396Z,101399.16
2023-01-20T22:30:13.506Z,101403.06
2023-01-20T22:32:51.272Z,101400.75
2023-01-20T22:35:20.046Z,101366.31
2023-01-20T22:37:48.788Z,101406.19
2023-01-20T22:40:20.661Z,101409.28
2023-01-20T22:42:49.775Z,101398.47
2023-01-20T22:45:18.669Z,101399.44
2023-01-20T22:47:47.471Z,101393.97
2023-01-20T22:50:18.172Z,101372.00
2023-01-20T22:52:47.647Z,101392.59
2023-01-20T22:55:16.421Z,101392.81
2023-01-20T22:57:45.165Z,101389.22
2023-01-20T23:00:14.540Z,101395.00
2023-01-20T23:02:43.539Z,101402.88
2023-01-20T23:05:12.047Z,101402.88
2023-01-20T23:07:42.217Z,101403.66
2023-01-20T23:10:33.405Z,101405.84
2023-01-20T23:13:02.237Z,101409.97
2023-01-20T23:15:30.971Z,101410.16
2023-01-20T23:17:59.770Z,101415.66
2023-01-20T23:20:29.093Z,101419.84
2023-01-20T23:22:59.048Z,101410.22
2023-01-20T23:25:27.792Z,101425.34
2023-01-20T23:27:56.501Z,101430.22
2023-01-20T23:30:25.220Z,101431.16
2023-01-20T23:32:53.911Z,101437.84
2023-01-20T23:35:22.710Z,101434.09
2023-01-20T23:37:51.974Z,101435.25
2023-01-20T23:40:22.106Z,101442.84
2023-01-20T23:42:51.404Z,101438.66
2023-01-20T23:45:19.773Z,101435.09
2023-01-20T23:47:48.519Z,101439.81
2023-01-20T23:50:17.726Z,101440.63
2023-01-20T23:52:46.625Z,101440.47
2023-01-20T23:55:15.166Z,101440.75
2023-01-20T23:57:44.922Z,101435.06
